sensor_id;sensor_type;location;lat;lon;timestamp;temperature;humidity
31661;DHT22;18267;52.234;7.444;2024-02-21T00:00:45;10.10;99.90
31661;DHT22;18267;52.234;7.444;2024-02-21T00:03:11;10.00;99.90
31661;DHT22;18267;52.234;7.444;2024-02-21T00:05:36;10.00;99.90
31661;DHT22;18267;52.234;7.444;2024-02-21T00:08:02;9.90;99.90
31661;DHT22;18267;52.234;7.444;2024-02-21T00:10:28;9.90;99.90
31661;DHT22;18267;52.234;7.444;2024-02-21T00:12:54;9.90;99.90
31661;DHT22;18267;52.234;7.444;2024-02-21T00:15:20;10.00;99.90
31661;DHT22;18267;52.234;7.444;2024-02-21T00:17:45;10.10;99.90
31661;DHT22;18267;52.234;7.444;2024-02-21T00:20:11;10.10;99.90
31661;DHT22;18267;52.234;7.444;2024-02-21T00:22:37;10.10;99.90
31661;DHT22;18267;52.234;7.444;2024-02-21T00:25:03;10.10;99.90
31661;DHT22;18267;52.234;7.444;2024-02-21T00:27:29;10.10;99.90
31661;DHT22;18267;52.234;7.444;2024-02-21T00:29:54;10.10;99.90
31661;DHT22;18267;52.234;7.444;2024-02-21T00:32:20;10.10;99.90
31661;DHT22;18267;52.234;7.444;2024-02-21T00:34:46;10.00;99.90
31661;DHT22;18267;52.234;7.444;2024-02-21T00:37:11;10.10;99.90
31661;DHT22;18267;52.234;7.444;2024-02-21T00:39:37;10.10;99.90
31661;DHT22;18267;52.234;7.444;2024-02-21T00:42:02;10.10;99.90
31661;DHT22;18267;52.234;7.444;2024-02-21T00:44:28;10.00;99.90
31661;DHT22;18267;52.234;7.444;2024-02-21T00:46:54;9.90;99.90
31661;DHT22;18267;52.234;7.444;2024-02-21T00:49:19;9.90;99.90
31661;DHT22;18267;52.234;7.444;2024-02-21T00:51:45;9.80;99.90
31661;DHT22;18267;52.234;7.444;2024-02-21T00:54:10;9.90;99.90
31661;DHT22;18267;52.234;7.444;2024-02-21T00:56:36;10.00;99.90
31661;DHT22;18267;52.234;7.444;2024-02-21T00:59:02;9.90;99.90
31661;DHT22;18267;52.234;7.444;2024-02-21T01:01:27;10.00;99.90
31661;DHT22;18267;52.234;7.444;2024-02-21T01:03:53;10.00;99.90
31661;DHT22;18267;52.234;7.444;2024-02-21T01:06:19;10.00;99.90
31661;DHT22;18267;52.234;7.444;2024-02-21T01:08:48;10.00;99.90
31661;DHT22;18267;52.234;7.444;2024-02-21T01:11:15;10.00;99.90
31661;DHT22;18267;52.234;7.444;2024-02-21T01:13:41;10.00;99.90
31661;DHT22;18267;52.234;7.444;2024-02-21T01:16:06;9.90;99.90
31661;DHT22;18267;52.234;7.444;2024-02-21T01:18:36;9.90;99.90
31661;DHT22;18267;52.234;7.444;2024-02-21T01:21:02;10.00;99.90
31661;DHT22;18267;52.234;7.444;2024-02-21T01:23:32;10.10;99.90
31661;DHT22;18267;52.234;7.444;2024-02-21T01:25:58;10.20;99.90
31661;DHT22;18267;52.234;7.444;2024-02-21T01:28:23;10.20;99.90
31661;DHT22;18267;52.234;7.444;2024-02-21T01:30:49;10.20;99.90
31661;DHT22;18267;52.234;7.444;2024-02-21T01:33:14;10.10;99.90
31661;DHT22;18267;52.234;7.444;2024-02-21T01:35:40;10.10;99.90
31661;DHT22;18267;52.234;7.444;2024-02-21T01:38:05;10.20;99.90
31661;DHT22;18267;52.234;7.444;2024-02-21T01:40:31;10.20;99.90
31661;DHT22;18267;52.234;7.444;2024-02-21T01:42:56;10.10;99.90
31661;DHT22;18267;52.234;7.444;2024-02-21T01:45:22;10.00;99.90
31661;DHT22;18267;52.234;7.444;2024-02-21T01:47:48;10.00;99.90
31661;DHT22;18267;52.234;7.444;2024-02-21T01:50:15;10.10;99.90
31661;DHT22;18267;52.234;7.444;2024-02-21T01:52:43;10.00;99.90
31661;DHT22;18267;52.234;7.444;2024-02-21T01:55:10;10.10;99.90
31661;DHT22;18267;52.234;7.444;2024-02-21T01:57:36;10.10;99.90
31661;DHT22;18267;52.234;7.444;2024-02-21T02:00:02;10.20;99.90
31661;DHT22;18267;52.234;7.444;2024-02-21T02:02:29;10.10;99.90
31661;DHT22;18267;52.234;7.444;2024-02-21T02:04:54;10.10;99.90
31661;DHT22;18267;52.234;7.444;2024-02-21T02:07:20;10.10;99.90
31661;DHT22;18267;52.234;7.444;2024-02-21T02:09:45;10.10;99.90
31661;DHT22;18267;52.234;7.444;2024-02-21T02:12:11;10.10;99.90
31661;DHT22;18267;52.234;7.444;2024-02-21T02:14:36;10.10;99.90
31661;DHT22;18267;52.234;7.444;2024-02-21T02:17:02;10.10;99.90
31661;DHT22;18267;52.234;7.444;2024-02-21T02:19:27;10.00;99.90
31661;DHT22;18267;52.234;7.444;2024-02-21T02:22:09;10.10;99.90
31661;DHT22;18267;52.234;7.444;2024-02-21T02:24:35;10.10;99.90
31661;DHT22;18267;52.234;7.444;2024-02-21T02:27:00;10.00;99.90
31661;DHT22;18267;52.234;7.444;2024-02-21T02:29:26;10.10;99.90
31661;DHT22;18267;52.234;7.444;2024-02-21T02:31:51;10.10;99.90
31661;DHT22;18267;52.234;7.444;2024-02-21T02:34:17;10.10;99.90
31661;DHT22;18267;52.234;7.444;2024-02-21T02:36:42;10.10;99.90
31661;DHT22;18267;52.234;7.444;2024-02-21T02:39:08;10.10;99.90
31661;DHT22;18267;52.234;7.444;2024-02-21T02:41:37;10.10;99.90
31661;DHT22;18267;52.234;7.444;2024-02-21T02:44:03;10.10;99.90
31661;DHT22;18267;52.234;7.444;2024-02-21T02:46:29;10.10;99.90
31661;DHT22;18267;52.234;7.444;2024-02-21T02:48:55;10.00;99.90
31661;DHT22;18267;52.234;7.444;2024-02-21T02:51:20;10.00;99.90
31661;DHT22;18267;52.234;7.444;2024-02-21T02:53:45;10.00;99.90
31661;DHT22;18267;52.234;7.444;2024-02-21T02:56:15;9.90;99.90
31661;DHT22;18267;52.234;7.444;2024-02-21T02:58:42;9.90;99.90
31661;DHT22;18267;52.234;7.444;2024-02-21T03:01:07;9.90;99.90
31661;DHT22;18267;52.234;7.444;2024-02-21T03:03:33;9.90;99.90
31661;DHT22;18267;52.234;7.444;2024-02-21T03:05:58;9.90;99.90
31661;DHT22;18267;52.234;7.444;2024-02-21T03:08:24;10.00;99.90
31661;DHT22;18267;52.234;7.444;2024-02-21T03:10:49;10.00;99.90
31661;DHT22;18267;52.234;7.444;2024-02-21T03:13:15;10.10;99.90
31661;DHT22;18267;52.234;7.444;2024-02-21T03:15:40;10.10;99.90
31661;DHT22;18267;52.234;7.444;2024-02-21T03:18:06;10.10;99.90
31661;DHT22;18267;52.234;7.444;2024-02-21T03:20:31;10.10;99.90
31661;DHT22;18267;52.234;7.444;2024-02-21T03:22:57;10.10;99.90
31661;DHT22;18267;52.234;7.444;2024-02-21T03:25:23;10.10;99.90
31661;DHT22;18267;52.234;7.444;2024-02-21T03:27:49;10.00;99.90
31661;DHT22;18267;52.234;7.444;2024-02-21T03:30:14;10.10;99.90
31661;DHT22;18267;52.234;7.444;2024-02-21T03:32:40;10.10;99.90
31661;DHT22;18267;52.234;7.444;2024-02-21T03:35:06;10.10;99.90
31661;DHT22;18267;52.234;7.444;2024-02-21T03:37:31;10.00;99.90
31661;DHT22;18267;52.234;7.444;2024-02-21T03:39:58;10.00;99.90
31661;DHT22;18267;52.234;7.444;2024-02-21T03:42:23;10.00;99.90
31661;DHT22;18267;52.234;7.444;2024-02-21T03:44:49;10.10;99.90
31661;DHT22;18267;52.234;7.444;2024-02-21T03:47:14;10.10;99.90
31661;DHT22;18267;52.234;7.444;2024-02-21T03:49:40;10.10;99.90
31661;DHT22;18267;52.234;7.444;2024-02-21T03:52:05;10.10;99.90
31661;DHT22;18267;52.234;7.444;2024-02-21T03:54:31;10.00;99.90
31661;DHT22;18267;52.234;7.444;2024-02-21T03:56:56;10.00;99.90
31661;DHT22;18267;52.234;7.444;2024-02-21T03:59:22;10.00;99.90
31661;DHT22;18267;52.234;7.444;2024-02-21T04:01:51;10.00;99.90
31661;DHT22;18267;52.234;7.444;2024-02-21T04:04:17;10.00;99.90
31661;DHT22;18267;52.234;7.444;2024-02-21T04:06:50;10.00;99.90
31661;DHT22;18267;52.234;7.444;2024-02-21T04:09:15;9.90;99.90
31661;DHT22;18267;52.234;7.444;2024-02-21T04:11:41;10.00;99.90
31661;DHT22;18267;52.234;7.444;2024-02-21T04:14:06;10.00;99.90
31661;DHT22;18267;52.234;7.444;2024-02-21T04:16:32;10.00;99.90
31661;DHT22;18267;52.234;7.444;2024-02-21T04:18:58;10.10;99.90
31661;DHT22;18267;52.234;7.444;2024-02-21T04:21:23;10.20;99.90
31661;DHT22;18267;52.234;7.444;2024-02-21T04:23:49;10.10;99.90
31661;DHT22;18267;52.234;7.444;2024-02-21T04:26:14;10.10;99.90
31661;DHT22;18267;52.234;7.444;2024-02-21T04:28:40;10.10;99.90
31661;DHT22;18267;52.234;7.444;2024-02-21T04:31:05;10.10;99.90
31661;DHT22;18267;52.234;7.444;2024-02-21T04:33:32;10.00;99.90
31661;DHT22;18267;52.234;7.444;2024-02-21T04:35:57;10.00;99.90
31661;DHT22;18267;52.234;7.444;2024-02-21T04:38:24;10.00;99.90
31661;DHT22;18267;52.234;7.444;2024-02-21T04:40:49;10.00;99.90
31661;DHT22;18267;52.234;7.444;2024-02-21T04:43:15;10.00;99.90
31661;DHT22;18267;52.234;7.444;2024-02-21T04:45:40;9.90;99.90
31661;DHT22;18267;52.234;7.444;2024-02-21T04:48:06;10.00;99.90
31661;DHT22;18267;52.234;7.444;2024-02-21T04:50:31;10.00;99.90
31661;DHT22;18267;52.234;7.444;2024-02-21T04:52:57;9.90;99.90
31661;DHT22;18267;52.234;7.444;2024-02-21T04:55:22;9.90;99.90
31661;DHT22;18267;52.234;7.444;2024-02-21T04:57:48;9.90;99.90
31661;DHT22;18267;52.234;7.444;2024-02-21T05:00:14;10.00;99.90
31661;DHT22;18267;52.234;7.444;2024-02-21T05:02:39;10.00;99.90
31661;DHT22;18267;52.234;7.444;2024-02-21T05:05:05;10.00;99.90
31661;DHT22;18267;52.234;7.444;2024-02-21T05:07:31;10.00;99.90
31661;DHT22;18267;52.234;7.444;2024-02-21T05:09:56;10.00;99.90
31661;DHT22;18267;52.234;7.444;2024-02-21T05:12:22;10.00;99.90
31661;DHT22;18267;52.234;7.444;2024-02-21T05:14:47;10.00;99.90
31661;DHT22;18267;52.234;7.444;2024-02-21T05:17:14;10.10;99.90
31661;DHT22;18267;52.234;7.444;2024-02-21T05:19:40;10.10;99.90
31661;DHT22;18267;52.234;7.444;2024-02-21T05:22:06;10.20;99.90
31661;DHT22;18267;52.234;7.444;2024-02-21T05:24:31;10.20;99.90
31661;DHT22;18267;52.234;7.444;2024-02-21T05:26:57;10.20;99.90
31661;DHT22;18267;52.234;7.444;2024-02-21T05:29:22;10.10;99.90
31661;DHT22;18267;52.234;7.444;2024-02-21T05:34:22;10.10;99.90
31661;DHT22;18267;52.234;7.444;2024-02-21T05:36:47;10.00;99.90
31661;DHT22;18267;52.234;7.444;2024-02-21T05:39:15;10.00;99.90
31661;DHT22;18267;52.234;7.444;2024-02-21T05:41:41;10.00;99.90
31661;DHT22;18267;52.234;7.444;2024-02-21T05:44:07;10.00;99.90
31661;DHT22;18267;52.234;7.444;2024-02-21T05:46:32;10.10;99.90
31661;DHT22;18267;52.234;7.444;2024-02-21T05:48:58;10.10;99.90
31661;DHT22;18267;52.234;7.444;2024-02-21T05:51:23;10.10;99.90
31661;DHT22;18267;52.234;7.444;2024-02-21T05:53:49;10.10;99.90
31661;DHT22;18267;52.234;7.444;2024-02-21T05:56:15;10.00;99.90
31661;DHT22;18267;52.234;7.444;2024-02-21T05:58:40;10.00;99.90
31661;DHT22;18267;52.234;7.444;2024-02-21T06:01:07;9.90;99.90
31661;DHT22;18267;52.234;7.444;2024-02-21T06:03:33;10.00;99.90
31661;DHT22;18267;52.234;7.444;2024-02-21T06:05:59;9.90;99.90
31661;DHT22;18267;52.234;7.444;2024-02-21T06:08:25;9.90;99.90
31661;DHT22;18267;52.234;7.444;2024-02-21T06:10:50;9.90;99.90
31661;DHT22;18267;52.234;7.444;2024-02-21T06:13:25;9.90;99.90
31661;DHT22;18267;52.234;7.444;2024-02-21T06:15:51;9.90;99.90
31661;DHT22;18267;52.234;7.444;2024-02-21T06:18:17;10.00;99.90
31661;DHT22;18267;52.234;7.444;2024-02-21T06:20:43;10.00;99.90
31661;DHT22;18267;52.234;7.444;2024-02-21T06:23:08;10.00;99.90
31661;DHT22;18267;52.234;7.444;2024-02-21T06:25:34;10.00;99.90
31661;DHT22;18267;52.234;7.444;2024-02-21T06:27:59;9.90;99.90
31661;DHT22;18267;52.234;7.444;2024-02-21T06:30:25;10.00;99.90
31661;DHT22;18267;52.234;7.444;2024-02-21T06:32:50;10.00;99.90
31661;DHT22;18267;52.234;7.444;2024-02-21T06:35:16;10.00;99.90
31661;DHT22;18267;52.234;7.444;2024-02-21T06:37:42;10.00;99.90
31661;DHT22;18267;52.234;7.444;2024-02-21T06:40:08;10.00;99.90
31661;DHT22;18267;52.234;7.444;2024-02-21T06:42:33;10.00;99.90
31661;DHT22;18267;52.234;7.444;2024-02-21T06:44:59;10.10;99.90
31661;DHT22;18267;52.234;7.444;2024-02-21T06:47:24;10.00;99.90
31661;DHT22;18267;52.234;7.444;2024-02-21T06:49:51;10.10;99.90
31661;DHT22;18267;52.234;7.444;2024-02-21T06:52:19;10.00;99.90
31661;DHT22;18267;52.234;7.444;2024-02-21T06:54:49;10.00;99.90
31661;DHT22;18267;52.234;7.444;2024-02-21T06:57:14;10.10;99.90
31661;DHT22;18267;52.234;7.444;2024-02-21T06:59:43;10.10;99.90
31661;DHT22;18267;52.234;7.444;2024-02-21T07:02:08;10.20;99.90
31661;DHT22;18267;52.234;7.444;2024-02-21T07:04:34;10.10;99.90
31661;DHT22;18267;52.234;7.444;2024-02-21T07:07:01;10.20;99.90
31661;DHT22;18267;52.234;7.444;2024-02-21T07:09:26;10.20;99.90
31661;DHT22;18267;52.234;7.444;2024-02-21T07:11:54;10.20;99.90
31661;DHT22;18267;52.234;7.444;2024-02-21T07:14:19;10.10;99.90
31661;DHT22;18267;52.234;7.444;2024-02-21T07:16:45;10.20;99.90
31661;DHT22;18267;52.234;7.444;2024-02-21T07:19:10;10.10;99.90
31661;DHT22;18267;52.234;7.444;2024-02-21T07:21:36;10.10;99.90
31661;DHT22;18267;52.234;7.444;2024-02-21T07:24:03;10.10;99.90
31661;DHT22;18267;52.234;7.444;2024-02-21T07:26:31;10.20;99.90
31661;DHT22;18267;52.234;7.444;2024-02-21T07:28:56;10.20;99.90
31661;DHT22;18267;52.234;7.444;2024-02-21T07:31:22;10.20;99.90
31661;DHT22;18267;52.234;7.444;2024-02-21T07:33:47;10.30;99.90
31661;DHT22;18267;52.234;7.444;2024-02-21T07:36:15;10.20;99.90
31661;DHT22;18267;52.234;7.444;2024-02-21T07:38:40;10.20;99.90
31661;DHT22;18267;52.234;7.444;2024-02-21T07:41:06;10.20;99.90
31661;DHT22;18267;52.234;7.444;2024-02-21T07:43:32;10.20;99.90
31661;DHT22;18267;52.234;7.444;2024-02-21T07:45:57;10.20;99.90
31661;DHT22;18267;52.234;7.444;2024-02-21T07:48:23;10.20;99.90
31661;DHT22;18267;52.234;7.444;2024-02-21T07:50:50;10.20;99.90
31661;DHT22;18267;52.234;7.444;2024-02-21T07:53:16;10.30;99.90
31661;DHT22;18267;52.234;7.444;2024-02-21T07:55:41;10.30;99.90
31661;DHT22;18267;52.234;7.444;2024-02-21T07:58:07;10.30;99.90
31661;DHT22;18267;52.234;7.444;2024-02-21T08:00:33;10.30;99.90
31661;DHT22;18267;52.234;7.444;2024-02-21T08:02:58;10.30;99.90
31661;DHT22;18267;52.234;7.444;2024-02-21T08:05:24;10.30;99.90
31661;DHT22;18267;52.234;7.444;2024-02-21T08:07:49;10.40;99.90
31661;DHT22;18267;52.234;7.444;2024-02-21T08:10:15;10.40;99.90
31661;DHT22;18267;52.234;7.444;2024-02-21T08:12:41;10.50;99.90
31661;DHT22;18267;52.234;7.444;2024-02-21T08:15:06;10.50;99.90
31661;DHT22;18267;52.234;7.444;2024-02-21T08:17:36;10.50;99.90
31661;DHT22;18267;52.234;7.444;2024-02-21T08:20:03;10.50;99.90
31661;DHT22;18267;52.234;7.444;2024-02-21T08:22:30;10.50;99.90
31661;DHT22;18267;52.234;7.444;2024-02-21T08:24:55;10.50;99.90
31661;DHT22;18267;52.234;7.444;2024-02-21T08:27:21;10.60;99.90
31661;DHT22;18267;52.234;7.444;2024-02-21T08:29:46;10.60;99.90
31661;DHT22;18267;52.234;7.444;2024-02-21T08:32:12;10.60;99.90
31661;DHT22;18267;52.234;7.444;2024-02-21T08:34:37;10.60;99.90
31661;DHT22;18267;52.234;7.444;2024-02-21T08:37:03;10.60;99.90
31661;DHT22;18267;52.234;7.444;2024-02-21T08:39:29;10.60;99.90
31661;DHT22;18267;52.234;7.444;2024-02-21T08:41:56;10.60;99.90
31661;DHT22;18267;52.234;7.444;2024-02-21T08:44:23;10.60;99.90
31661;DHT22;18267;52.234;7.444;2024-02-21T08:46:51;10.70;99.90
31661;DHT22;18267;52.234;7.444;2024-02-21T08:49:16;10.70;99.90
31661;DHT22;18267;52.234;7.444;2024-02-21T08:51:42;10.90;99.90
31661;DHT22;18267;52.234;7.444;2024-02-21T08:54:08;10.90;99.90
31661;DHT22;18267;52.234;7.444;2024-02-21T08:56:34;10.90;99.90
31661;DHT22;18267;52.234;7.444;2024-02-21T08:59:00;11.00;99.90
31661;DHT22;18267;52.234;7.444;2024-02-21T09:01:26;11.00;99.90
31661;DHT22;18267;52.234;7.444;2024-02-21T09:03:52;11.00;99.90
31661;DHT22;18267;52.234;7.444;2024-02-21T09:06:19;11.10;99.90
31661;DHT22;18267;52.234;7.444;2024-02-21T09:08:45;11.10;99.90
31661;DHT22;18267;52.234;7.444;2024-02-21T09:11:11;11.10;99.90
31661;DHT22;18267;52.234;7.444;2024-02-21T09:13:37;11.20;99.90
31661;DHT22;18267;52.234;7.444;2024-02-21T09:16:02;11.20;99.90
31661;DHT22;18267;52.234;7.444;2024-02-21T09:18:29;11.20;99.90
31661;DHT22;18267;52.234;7.444;2024-02-21T09:20:55;11.20;99.90
31661;DHT22;18267;52.234;7.444;2024-02-21T09:23:20;11.20;99.90
31661;DHT22;18267;52.234;7.444;2024-02-21T09:25:46;11.30;99.90
31661;DHT22;18267;52.234;7.444;2024-02-21T09:28:11;11.30;99.90
31661;DHT22;18267;52.234;7.444;2024-02-21T09:30:38;11.30;99.90
31661;DHT22;18267;52.234;7.444;2024-02-21T09:33:04;11.30;99.90
31661;DHT22;18267;52.234;7.444;2024-02-21T09:35:30;11.40;99.90
31661;DHT22;18267;52.234;7.444;2024-02-21T09:37:56;11.40;99.90
31661;DHT22;18267;52.234;7.444;2024-02-21T09:40:21;11.30;99.90
31661;DHT22;18267;52.234;7.444;2024-02-21T09:42:48;11.40;99.90
31661;DHT22;18267;52.234;7.444;2024-02-21T09:50:31;11.40;99.90
31661;DHT22;18267;52.234;7.444;2024-02-21T09:52:58;11.30;99.90
31661;DHT22;18267;52.234;7.444;2024-02-21T09:55:27;11.40;99.90
31661;DHT22;18267;52.234;7.444;2024-02-21T09:57:55;11.50;99.90
31661;DHT22;18267;52.234;7.444;2024-02-21T10:00:22;11.60;99.90
31661;DHT22;18267;52.234;7.444;2024-02-21T10:02:48;11.50;99.90
31661;DHT22;18267;52.234;7.444;2024-02-21T10:05:15;11.40;99.90
31661;DHT22;18267;52.234;7.444;2024-02-21T10:07:41;11.40;99.90
31661;DHT22;18267;52.234;7.444;2024-02-21T10:10:07;11.50;99.90
31661;DHT22;18267;52.234;7.444;2024-02-21T10:12:33;11.50;99.90
31661;DHT22;18267;52.234;7.444;2024-02-21T10:15:05;11.60;99.90
31661;DHT22;18267;52.234;7.444;2024-02-21T10:17:35;11.60;99.90
31661;DHT22;18267;52.234;7.444;2024-02-21T10:20:11;11.60;99.90
31661;DHT22;18267;52.234;7.444;2024-02-21T10:22:38;11.70;99.90
31661;DHT22;18267;52.234;7.444;2024-02-21T10:25:12;11.80;99.90
31661;DHT22;18267;52.234;7.444;2024-02-21T10:27:38;11.70;99.90
31661;DHT22;18267;52.234;7.444;2024-02-21T10:30:06;11.70;99.90
31661;DHT22;18267;52.234;7.444;2024-02-21T10:32:32;11.80;99.90
31661;DHT22;18267;52.234;7.444;2024-02-21T10:35:04;11.80;99.90
31661;DHT22;18267;52.234;7.444;2024-02-21T10:37:31;11.80;99.90
31661;DHT22;18267;52.234;7.444;2024-02-21T10:39:57;11.90;99.90
31661;DHT22;18267;52.234;7.444;2024-02-21T10:42:23;11.80;99.90
31661;DHT22;18267;52.234;7.444;2024-02-21T10:44:51;11.80;99.90
31661;DHT22;18267;52.234;7.444;2024-02-21T10:47:17;11.80;99.90
31661;DHT22;18267;52.234;7.444;2024-02-21T10:49:50;11.90;99.90
31661;DHT22;18267;52.234;7.444;2024-02-21T10:55:38;12.00;99.90
31661;DHT22;18267;52.234;7.444;2024-02-21T10:58:07;12.00;99.90
31661;DHT22;18267;52.234;7.444;2024-02-21T11:00:35;12.10;99.90
31661;DHT22;18267;52.234;7.444;2024-02-21T11:03:02;12.10;99.90
31661;DHT22;18267;52.234;7.444;2024-02-21T11:05:28;12.10;99.90
31661;DHT22;18267;52.234;7.444;2024-02-21T11:07:55;12.10;99.90
31661;DHT22;18267;52.234;7.444;2024-02-21T11:10:24;12.20;99.90
31661;DHT22;18267;52.234;7.444;2024-02-21T11:13:05;12.10;99.90
31661;DHT22;18267;52.234;7.444;2024-02-21T11:15:31;12.10;99.90
31661;DHT22;18267;52.234;7.444;2024-02-21T11:17:56;12.20;99.90
31661;DHT22;18267;52.234;7.444;2024-02-21T11:20:35;12.20;99.90
31661;DHT22;18267;52.234;7.444;2024-02-21T11:23:01;12.10;99.90
31661;DHT22;18267;52.234;7.444;2024-02-21T11:25:28;12.10;99.90
31661;DHT22;18267;52.234;7.444;2024-02-21T11:28:09;12.10;99.90
31661;DHT22;18267;52.234;7.444;2024-02-21T11:30:36;12.00;99.90
31661;DHT22;18267;52.234;7.444;2024-02-21T11:33:05;11.90;99.90
31661;DHT22;18267;52.234;7.444;2024-02-21T11:35:33;11.80;99.90
31661;DHT22;18267;52.234;7.444;2024-02-21T11:38:10;11.70;99.90
31661;DHT22;18267;52.234;7.444;2024-02-21T11:40:41;11.70;99.90
31661;DHT22;18267;52.234;7.444;2024-02-21T11:43:07;11.70;99.90
31661;DHT22;18267;52.234;7.444;2024-02-21T11:45:33;11.70;99.90
31661;DHT22;18267;52.234;7.444;2024-02-21T11:47:59;11.60;99.90
31661;DHT22;18267;52.234;7.444;2024-02-21T11:50:26;11.50;99.90
31661;DHT22;18267;52.234;7.444;2024-02-21T11:52:54;11.50;99.90
31661;DHT22;18267;52.234;7.444;2024-02-21T11:55:21;11.40;99.90
31661;DHT22;18267;52.234;7.444;2024-02-21T11:57:50;11.40;99.90
31661;DHT22;18267;52.234;7.444;2024-02-21T12:00:19;11.40;99.90
31661;DHT22;18267;52.234;7.444;2024-02-21T12:02:50;11.40;99.90
31661;DHT22;18267;52.234;7.444;2024-02-21T12:05:16;11.50;99.90
31661;DHT22;18267;52.234;7.444;2024-02-21T12:07:42;11.50;99.90
31661;DHT22;18267;52.234;7.444;2024-02-21T12:10:11;11.50;99.90
31661;DHT22;18267;52.234;7.444;2024-02-21T12:12:39;11.50;99.90
31661;DHT22;18267;52.234;7.444;2024-02-21T12:15:06;11.50;99.90
31661;DHT22;18267;52.234;7.444;2024-02-21T12:17:33;11.60;99.90
31661;DHT22;18267;52.234;7.444;2024-02-21T12:20:00;11.50;99.90
31661;DHT22;18267;52.234;7.444;2024-02-21T12:22:25;11.60;99.90
31661;DHT22;18267;52.234;7.444;2024-02-21T12:24:51;11.50;99.90
31661;DHT22;18267;52.234;7.444;2024-02-21T12:27:17;11.40;99.90
31661;DHT22;18267;52.234;7.444;2024-02-21T12:29:42;11.30;99.90
31661;DHT22;18267;52.234;7.444;2024-02-21T12:32:08;11.30;99.90
31661;DHT22;18267;52.234;7.444;2024-02-21T12:34:34;11.20;99.90
31661;DHT22;18267;52.234;7.444;2024-02-21T12:37:02;11.20;99.90
31661;DHT22;18267;52.234;7.444;2024-02-21T12:39:28;11.20;99.90
31661;DHT22;18267;52.234;7.444;2024-02-21T12:41:54;11.30;99.90
31661;DHT22;18267;52.234;7.444;2024-02-21T12:44:21;11.30;99.90
31661;DHT22;18267;52.234;7.444;2024-02-21T12:46:46;11.30;99.90
31661;DHT22;18267;52.234;7.444;2024-02-21T12:49:17;11.40;99.90
31661;DHT22;18267;52.234;7.444;2024-02-21T12:51:44;11.50;99.90
31661;DHT22;18267;52.234;7.444;2024-02-21T12:54:12;11.50;99.90
31661;DHT22;18267;52.234;7.444;2024-02-21T12:56:37;11.50;99.90
31661;DHT22;18267;52.234;7.444;2024-02-21T12:59:03;11.60;99.90
31661;DHT22;18267;52.234;7.444;2024-02-21T13:01:29;11.60;99.90
31661;DHT22;18267;52.234;7.444;2024-02-21T13:03:54;11.70;99.90
31661;DHT22;18267;52.234;7.444;2024-02-21T13:06:21;11.60;99.90
31661;DHT22;18267;52.234;7.444;2024-02-21T13:08:46;11.60;99.90
31661;DHT22;18267;52.234;7.444;2024-02-21T13:11:12;11.70;99.90
31661;DHT22;18267;52.234;7.444;2024-02-21T13:13:38;11.80;99.90
31661;DHT22;18267;52.234;7.444;2024-02-21T13:16:04;11.80;99.90
31661;DHT22;18267;52.234;7.444;2024-02-21T13:18:29;11.80;99.90
31661;DHT22;18267;52.234;7.444;2024-02-21T13:20:55;11.70;99.90
31661;DHT22;18267;52.234;7.444;2024-02-21T13:23:21;11.70;99.90
31661;DHT22;18267;52.234;7.444;2024-02-21T13:25:47;11.70;99.90
31661;DHT22;18267;52.234;7.444;2024-02-21T13:28:13;11.70;99.90
31661;DHT22;18267;52.234;7.444;2024-02-21T13:30:40;11.60;99.90
31661;DHT22;18267;52.234;7.444;2024-02-21T13:33:08;11.60;99.90
31661;DHT22;18267;52.234;7.444;2024-02-21T13:35:35;11.60;99.90
31661;DHT22;18267;52.234;7.444;2024-02-21T13:38:02;11.60;99.90
31661;DHT22;18267;52.234;7.444;2024-02-21T13:40:28;11.50;99.90
31661;DHT22;18267;52.234;7.444;2024-02-21T13:42:54;11.60;99.90
31661;DHT22;18267;52.234;7.444;2024-02-21T13:45:19;11.60;99.90
31661;DHT22;18267;52.234;7.444;2024-02-21T13:47:45;11.60;99.90
31661;DHT22;18267;52.234;7.444;2024-02-21T13:50:11;11.60;99.90
31661;DHT22;18267;52.234;7.444;2024-02-21T13:52:38;11.60;99.90
31661;DHT22;18267;52.234;7.444;2024-02-21T13:55:04;11.70;99.90
31661;DHT22;18267;52.234;7.444;2024-02-21T13:57:30;11.80;99.90
31661;DHT22;18267;52.234;7.444;2024-02-21T13:59:55;11.80;99.90
31661;DHT22;18267;52.234;7.444;2024-02-21T14:02:21;11.90;99.90
31661;DHT22;18267;52.234;7.444;2024-02-21T14:04:47;11.90;99.90
31661;DHT22;18267;52.234;7.444;2024-02-21T14:07:12;11.90;99.90
31661;DHT22;18267;52.234;7.444;2024-02-21T14:09:38;11.90;99.90
31661;DHT22;18267;52.234;7.444;2024-02-21T14:12:04;11.90;99.90
31661;DHT22;18267;52.234;7.444;2024-02-21T14:14:34;11.90;99.90
31661;DHT22;18267;52.234;7.444;2024-02-21T14:16:59;11.80;99.90
31661;DHT22;18267;52.234;7.444;2024-02-21T14:19:25;11.80;99.90
31661;DHT22;18267;52.234;7.444;2024-02-21T14:21:51;11.70;99.90
31661;DHT22;18267;52.234;7.444;2024-02-21T14:24:16;11.70;99.90
31661;DHT22;18267;52.234;7.444;2024-02-21T14:26:42;11.70;99.90
31661;DHT22;18267;52.234;7.444;2024-02-21T14:29:07;11.60;99.90
31661;DHT22;18267;52.234;7.444;2024-02-21T14:31:33;11.70;99.90
31661;DHT22;18267;52.234;7.444;2024-02-21T14:33:58;11.70;99.90
31661;DHT22;18267;52.234;7.444;2024-02-21T14:36:26;11.70;99.90
31661;DHT22;18267;52.234;7.444;2024-02-21T14:38:51;11.70;99.90
31661;DHT22;18267;52.234;7.444;2024-02-21T14:41:18;11.60;99.90
31661;DHT22;18267;52.234;7.444;2024-02-21T14:43:43;11.60;99.90
31661;DHT22;18267;52.234;7.444;2024-02-21T14:46:09;11.70;99.90
31661;DHT22;18267;52.234;7.444;2024-02-21T14:48:35;11.70;99.90
31661;DHT22;18267;52.234;7.444;2024-02-21T14:51:01;11.70;99.90
31661;DHT22;18267;52.234;7.444;2024-02-21T14:53:27;11.70;99.90
31661;DHT22;18267;52.234;7.444;2024-02-21T14:55:53;11.70;99.90
31661;DHT22;18267;52.234;7.444;2024-02-21T14:58:18;11.70;99.90
31661;DHT22;18267;52.234;7.444;2024-02-21T15:00:45;11.70;99.90
31661;DHT22;18267;52.234;7.444;2024-02-21T15:03:12;11.70;99.90
31661;DHT22;18267;52.234;7.444;2024-02-21T15:05:41;11.70;99.90
31661;DHT22;18267;52.234;7.444;2024-02-21T15:08:07;11.60;99.90
31661;DHT22;18267;52.234;7.444;2024-02-21T15:10:37;11.50;99.90
31661;DHT22;18267;52.234;7.444;2024-02-21T15:13:03;11.50;99.90
31661;DHT22;18267;52.234;7.444;2024-02-21T15:15:29;11.40;99.90
31661;DHT22;18267;52.234;7.444;2024-02-21T15:17:54;11.40;99.90
31661;DHT22;18267;52.234;7.444;2024-02-21T15:20:20;11.30;99.90
31661;DHT22;18267;52.234;7.444;2024-02-21T15:22:45;11.30;99.90
31661;DHT22;18267;52.234;7.444;2024-02-21T15:25:11;11.40;99.90
31661;DHT22;18267;52.234;7.444;2024-02-21T15:27:41;11.30;99.90
31661;DHT22;18267;52.234;7.444;2024-02-21T15:30:13;11.40;99.90
31661;DHT22;18267;52.234;7.444;2024-02-21T15:32:42;11.30;99.90
31661;DHT22;18267;52.234;7.444;2024-02-21T15:35:12;11.30;99.90
31661;DHT22;18267;52.234;7.444;2024-02-21T15:37:37;11.30;99.90